Welcome to La Porte Aviation Services!

An aviation adventure awaits

Current Weather Conditions

Available data for KPPO from the past 2 hours
LA PORTE, IN
Metar
KPPO 310215Z AUTO 01003KT 10SM OVC046 03/01 A3016 RMK AO2 T00340006

02:15 UTC

Wind: 10° 3kt

Visibility: 10 SM

Sky: OVC 4600 ft

Temp: 3 deg C / 37.4 deg F

Dewpoint: 1 deg C / 33.8 deg F

Pressure: 30.16 inHg

Pireps (7)
ORD UA /OV OBK090020/TM 0213/FL220/TP B752/TB MOD CHOP
LAF UA /OV OKK/TM 0213/FL350/TP B737/TB OCNL MOD/RM OCNL LGT CHOP 330
LAF UA /OV OXI180017/TM 0158/FL380/TP E175/TB MOD
MKG UA /OV PMM/TM 0153/FL260/TP CRJ9/TB MOD 240-280
SBN UA /OV GSH070043/TM 0144/FL200/TP B738/TB MOD/RM LGT CHOP BELOW 200
LAF UA /OV BVT/TM 0127/FL350/TP B737/TB MOD
LAF UA /OV BVT/TM 0030/FL370/TP NMRS/TB CONS MOD CHOP 370-380

Connect with us on Facebook!

Facebook By Weblizar Powered By Weblizar